WZZ1492 LBWN-LBSF

Flight info

Callsign WZZ1492
Flight time 0h 42m
Altitude 28000
Route DICXA N605 GOL
Aircraft A321/M-SDE3FGHIRWY/LB1

Departure

Time 2026-05-07 06:37
Airport Varna Airport (LBWN)

Arrival

Time 2026-05-07 07:19
Airport Sofia Airport (LBSF)
Time Latitude Longitude Altitude Speed Heading
2026-05-07 06:11 43.23509 27.82557 228 ft 0 kts
2026-05-07 06:17 43.23513 27.82558 227 ft 0 kts
2026-05-07 06:29 43.23545 27.82562 227 ft 7 kts 357°
2026-05-07 06:30 43.23578 27.82470 227 ft 13 kts 268°
2026-05-07 06:30 43.23584 27.82393 227 ft 12 kts 278°
2026-05-07 06:30 43.23575 27.82272 228 ft 16 kts 221°
2026-05-07 06:30 43.23521 27.82254 227 ft 0 kts 189°
2026-05-07 06:32 43.23518 27.82253 227 ft 3 kts 189°
2026-05-07 06:32 43.23483 27.82206 229 ft 12 kts 257°
2026-05-07 06:32 43.23490 27.82060 227 ft 18 kts 277°
2026-05-07 06:33 43.23506 27.81862 227 ft 23 kts 276°
2026-05-07 06:33 43.23528 27.81620 229 ft 28 kts 277°
2026-05-07 06:33 43.23551 27.81355 227 ft 27 kts 277°
2026-05-07 06:33 43.23569 27.81155 227 ft 19 kts 277°
2026-05-07 06:34 43.23577 27.81042 227 ft 11 kts 263°
2026-05-07 06:34 43.23539 27.80939 227 ft 13 kts 221°
2026-05-07 06:34 43.23468 27.80926 227 ft 10 kts 161°
2026-05-07 06:34 43.23460 27.80931 227 ft 0 kts 149°
2026-05-07 06:35 43.23456 27.80935 227 ft 4 kts 149°
2026-05-07 06:35 43.23410 27.80968 227 ft 11 kts 152°
2026-05-07 06:35 43.23343 27.81047 226 ft 12 kts 128°
2026-05-07 06:35 43.23320 27.81136 226 ft 0 kts 98°
2026-05-07 06:36 43.23320 27.81138 226 ft 4 kts 98°
2026-05-07 06:36 43.23303 27.81316 226 ft 53 kts 97°
2026-05-07 06:37 43.23232 27.82128 229 ft 116 kts 97°
2026-05-07 06:37 43.23114 27.83472 270 ft 161 kts 98°
2026-05-07 06:37 43.22966 27.84936 1032 ft 148 kts 99°
2026-05-07 06:37 43.22829 27.86387 1633 ft 160 kts 99°
2026-05-07 06:38 43.22695 27.87978 2067 ft 176 kts 101°
2026-05-07 06:38 43.22080 27.89467 2455 ft 191 kts 141°
2026-05-07 06:38 43.20822 27.90170 2903 ft 206 kts 176°
2026-05-07 06:38 43.19352 27.89717 3221 ft 231 kts 207°
2026-05-07 06:39 43.17903 27.88564 3697 ft 249 kts 211°
2026-05-07 06:39 43.16390 27.87333 4249 ft 263 kts 211°
2026-05-07 06:39 43.14773 27.86047 4917 ft 272 kts 211°
2026-05-07 06:39 43.13110 27.84748 5559 ft 278 kts 211°
2026-05-07 06:40 43.11410 27.83434 5936 ft 282 kts 211°
2026-05-07 06:40 43.09687 27.82113 6028 ft 283 kts 211°
2026-05-07 06:40 43.08056 27.80617 6012 ft 282 kts 226°
2026-05-07 06:40 43.07014 27.78399 6041 ft 275 kts 256°
2026-05-07 06:41 43.06844 27.75823 6682 ft 274 kts 278°
2026-05-07 06:41 43.07084 27.73271 7433 ft 275 kts 281°
2026-05-07 06:41 43.07359 27.70659 8204 ft 278 kts 280°
2026-05-07 06:41 43.07620 27.68020 8964 ft 281 kts 279°
2026-05-07 06:42 43.07872 27.65350 9726 ft 285 kts 279°
2026-05-07 06:42 43.08119 27.62630 10295 ft 295 kts 278°
2026-05-07 06:42 43.08377 27.59756 10596 ft 314 kts 278°
2026-05-07 06:42 43.08645 27.56708 10849 ft 333 kts 278°
2026-05-07 06:43 43.08928 27.53474 11105 ft 350 kts 278°
2026-05-07 06:43 43.09217 27.50107 11516 ft 361 kts 278°
2026-05-07 06:43 43.09511 27.46673 12101 ft 365 kts 278°
2026-05-07 06:43 43.09808 27.43197 12734 ft 369 kts 278°
2026-05-07 06:44 43.10107 27.39690 13360 ft 373 kts 278°
2026-05-07 06:44 43.10576 27.36231 13953 ft 376 kts 288°
2026-05-07 06:44 43.11546 27.32901 14528 ft 378 kts 295°
2026-05-07 06:44 43.12621 27.29601 15097 ft 381 kts 295°
2026-05-07 06:45 43.13701 27.26281 15675 ft 383 kts 295°
2026-05-07 06:45 43.14779 27.22931 16253 ft 386 kts 294°
2026-05-07 06:45 43.15858 27.19544 16824 ft 389 kts 294°
2026-05-07 06:45 43.16934 27.16132 17406 ft 392 kts 294°
2026-05-07 06:46 43.18026 27.12688 17957 ft 395 kts 294°
2026-05-07 06:46 43.19118 27.09225 18491 ft 398 kts 294°
2026-05-07 06:46 43.19988 27.05621 18961 ft 401 kts 283°
2026-05-07 06:46 43.20230 27.01799 19461 ft 405 kts 270°
2026-05-07 06:47 43.20089 26.97929 19963 ft 407 kts 268°
2026-05-07 06:47 43.19907 26.94108 20452 ft 408 kts 268°
2026-05-07 06:47 43.19732 26.90210 20928 ft 410 kts 268°
2026-05-07 06:47 43.19571 26.86297 21406 ft 411 kts 269°
2026-05-07 06:48 43.19414 26.82375 21866 ft 413 kts 269°
2026-05-07 06:48 43.19257 26.78438 22324 ft 415 kts 269°
2026-05-07 06:48 43.19099 26.74478 22774 ft 416 kts 269°
2026-05-07 06:48 43.18941 26.70507 23228 ft 418 kts 269°
2026-05-07 06:49 43.18780 26.66513 23663 ft 420 kts 269°
2026-05-07 06:49 43.18644 26.62515 24029 ft 421 kts 270°
2026-05-07 06:49 43.18534 26.58545 24380 ft 422 kts 270°
2026-05-07 06:49 43.18420 26.54504 24737 ft 424 kts 270°
2026-05-07 06:50 43.18305 26.50473 25151 ft 423 kts 270°
2026-05-07 06:50 43.18189 26.46453 25638 ft 421 kts 270°
2026-05-07 06:50 43.18072 26.42447 26136 ft 418 kts 270°
2026-05-07 06:50 43.17955 26.38478 26626 ft 416 kts 270°
2026-05-07 06:51 43.17837 26.34528 27099 ft 414 kts 270°
2026-05-07 06:51 43.17717 26.30596 27576 ft 412 kts 270°
2026-05-07 06:51 43.17592 26.26670 27973 ft 411 kts 270°
2026-05-07 06:51 43.17469 26.22743 28073 ft 413 kts 270°
2026-05-07 06:52 43.17224 26.14938 28075 ft 413 kts 270°
2026-05-07 06:52 43.16900 26.07073 28057 ft 413 kts 269°
2026-05-07 06:53 43.16551 25.99195 28052 ft 414 kts 269°
2026-05-07 06:53 43.16205 25.91331 28051 ft 414 kts 269°
2026-05-07 06:54 43.15856 25.83469 28051 ft 414 kts 269°
2026-05-07 06:54 43.15503 25.75608 28052 ft 414 kts 269°
2026-05-07 06:55 43.15186 25.67730 28055 ft 414 kts 270°
2026-05-07 06:55 43.14927 25.59863 28052 ft 413 kts 270°
2026-05-07 06:56 43.14660 25.51993 28052 ft 413 kts 270°
2026-05-07 06:56 43.14390 25.44136 28047 ft 413 kts 270°
2026-05-07 06:57 43.14115 25.36335 28043 ft 412 kts 269°
2026-05-07 06:57 43.13837 25.28491 28043 ft 412 kts 269°
2026-05-07 06:58 43.13548 25.20645 28044 ft 412 kts 269°
2026-05-07 06:58 43.13403 25.16738 27940 ft 406 kts 269°
2026-05-07 06:58 43.13259 25.12910 27218 ft 399 kts 269°
2026-05-07 06:59 43.13119 25.09133 26304 ft 395 kts 269°
2026-05-07 06:59 43.12978 25.05415 25648 ft 386 kts 269°
2026-05-07 06:59 43.12842 25.01845 25117 ft 375 kts 269°
2026-05-07 06:59 43.12707 24.98327 24606 ft 364 kts 269°
2026-05-07 07:00 43.12576 24.94912 24111 ft 354 kts 269°
2026-05-07 07:00 43.12444 24.91562 23656 ft 352 kts 268°
2026-05-07 07:00 43.12310 24.88214 23101 ft 351 kts 268°
2026-05-07 07:00 43.12177 24.84875 22584 ft 351 kts 268°
2026-05-07 07:01 43.12043 24.81543 22061 ft 350 kts 268°
2026-05-07 07:01 43.11909 24.78219 21544 ft 349 kts 268°
2026-05-07 07:01 43.11773 24.74906 21052 ft 348 kts 268°
2026-05-07 07:01 43.11638 24.71635 20582 ft 348 kts 267°
2026-05-07 07:02 43.11501 24.68336 20107 ft 347 kts 267°
2026-05-07 07:02 43.11363 24.65028 19615 ft 348 kts 267°
2026-05-07 07:02 43.11224 24.61718 19123 ft 348 kts 267°
2026-05-07 07:02 43.11085 24.58406 18635 ft 348 kts 267°
2026-05-07 07:03 43.10943 24.55094 18126 ft 349 kts 266°
2026-05-07 07:03 43.10798 24.51762 17583 ft 349 kts 266°
2026-05-07 07:03 43.10653 24.48446 17073 ft 348 kts 266°
2026-05-07 07:03 43.10509 24.45148 16536 ft 345 kts 266°
2026-05-07 07:04 43.10367 24.41900 16035 ft 340 kts 266°
2026-05-07 07:04 43.10229 24.38736 15563 ft 333 kts 266°
2026-05-07 07:04 43.10091 24.35619 15107 ft 323 kts 266°
2026-05-07 07:04 43.09955 24.32587 14653 ft 315 kts 266°
2026-05-07 07:05 43.09821 24.29623 14201 ft 308 kts 266°
2026-05-07 07:05 43.09690 24.26730 13758 ft 301 kts 266°
2026-05-07 07:05 43.09515 24.23895 13301 ft 295 kts 261°
2026-05-07 07:05 43.08930 24.21208 12903 ft 299 kts 242°
2026-05-07 07:06 43.07710 24.18769 12600 ft 317 kts 231°
2026-05-07 07:06 43.06309 24.16446 12348 ft 316 kts 230°
2026-05-07 07:06 43.04925 24.14173 12131 ft 315 kts 230°
2026-05-07 07:06 43.03560 24.11903 11829 ft 302 kts 231°
2026-05-07 07:07 43.02255 24.09717 11501 ft 289 kts 231°
2026-05-07 07:07 43.01006 24.07613 11042 ft 283 kts 231°
2026-05-07 07:07 42.99775 24.05535 10642 ft 279 kts 230°
2026-05-07 07:07 42.98575 24.03510 10472 ft 269 kts 230°
2026-05-07 07:08 42.97418 24.01557 10353 ft 260 kts 230°
2026-05-07 07:08 42.96301 23.99669 10247 ft 251 kts 230°
2026-05-07 07:08 42.95215 23.97833 10074 ft 246 kts 230°
2026-05-07 07:08 42.94162 23.96052 9793 ft 244 kts 230°
2026-05-07 07:09 42.93100 23.94253 9496 ft 243 kts 230°
2026-05-07 07:09 42.92041 23.92462 9160 ft 242 kts 230°
2026-05-07 07:09 42.90985 23.90682 8885 ft 241 kts 230°
2026-05-07 07:09 42.89933 23.88913 8716 ft 240 kts 230°
2026-05-07 07:10 42.88884 23.87146 8651 ft 239 kts 230°
2026-05-07 07:10 42.87833 23.85379 8715 ft 245 kts 230°
2026-05-07 07:10 42.86713 23.83493 8697 ft 260 kts 230°
2026-05-07 07:10 42.85586 23.81594 8691 ft 257 kts 230°
2026-05-07 07:11 42.84387 23.79786 8694 ft 257 kts 218°
2026-05-07 07:11 42.82793 23.78751 8716 ft 256 kts 192°
2026-05-07 07:11 42.81074 23.78418 8615 ft 249 kts 185°
2026-05-07 07:11 42.79380 23.78256 8406 ft 237 kts 184°
2026-05-07 07:12 42.77770 23.78110 8160 ft 225 kts 184°
2026-05-07 07:12 42.76244 23.77968 7989 ft 215 kts 184°
2026-05-07 07:12 42.74763 23.77826 7711 ft 211 kts 185°
2026-05-07 07:12 42.73299 23.77680 7396 ft 210 kts 185°
2026-05-07 07:13 42.71836 23.77534 7102 ft 211 kts 185°
2026-05-07 07:13 42.70401 23.77388 6877 ft 205 kts 185°
2026-05-07 07:13 42.69057 23.76971 6748 ft 192 kts 201°
2026-05-07 07:13 42.68023 23.75945 6608 ft 181 kts 233°
2026-05-07 07:14 42.67600 23.74400 6477 ft 172 kts 263°
2026-05-07 07:14 42.67677 23.72748 6089 ft 180 kts 275°
2026-05-07 07:14 42.67810 23.71035 5730 ft 183 kts 275°
2026-05-07 07:14 42.67962 23.69335 5457 ft 183 kts 275°
2026-05-07 07:15 42.68081 23.67620 5201 ft 181 kts 274°
2026-05-07 07:15 42.68188 23.65919 4959 ft 180 kts 273°
2026-05-07 07:15 42.68291 23.64225 4740 ft 179 kts 274°
2026-05-07 07:15 42.68392 23.62540 4539 ft 179 kts 274°
2026-05-07 07:16 42.68493 23.60859 4294 ft 178 kts 274°
2026-05-07 07:16 42.68594 23.59186 4041 ft 178 kts 274°
2026-05-07 07:16 42.68695 23.57517 3789 ft 172 kts 274°
2026-05-07 07:16 42.68788 23.55971 3544 ft 158 kts 274°
2026-05-07 07:17 42.68872 23.54559 3314 ft 148 kts 274°
2026-05-07 07:17 42.68956 23.53168 3123 ft 147 kts 274°
2026-05-07 07:17 42.69039 23.51780 2923 ft 147 kts 275°
2026-05-07 07:17 42.69122 23.50399 2734 ft 146 kts 275°
2026-05-07 07:18 42.69205 23.49020 2524 ft 146 kts 275°
2026-05-07 07:18 42.69288 23.47653 2327 ft 145 kts 275°
2026-05-07 07:18 42.69370 23.46282 2135 ft 145 kts 275°
2026-05-07 07:18 42.69452 23.44917 1937 ft 145 kts 275°
2026-05-07 07:19 42.69535 23.43562 1771 ft 144 kts 275°
2026-05-07 07:19 42.69612 23.42359 1755 ft 90 kts 275°
2026-05-07 07:19 42.69635 23.41969 1751 ft 33 kts 274°
2026-05-07 07:19 42.69626 23.41719 1757 ft 14 kts 258°
2026-05-07 07:20 42.69590 23.41577 1750 ft 18 kts 243°
2026-05-07 07:20 42.69581 23.41554 1754 ft 0 kts 243°
2026-05-07 07:20 42.69579 23.41549 1752 ft 3 kts 243°
2026-05-07 07:20 42.69564 23.41508 1755 ft 7 kts 246°
2026-05-07 07:21 42.69536 23.41422 1746 ft 12 kts 245°
2026-05-07 07:21 42.69496 23.41305 1753 ft 15 kts 251°
2026-05-07 07:21 42.69489 23.41260 1751 ft 3 kts 271°
2026-05-07 07:21 42.69490 23.41227 1755 ft 7 kts 271°
2026-05-07 07:22 42.69494 23.41137 1749 ft 12 kts 274°
2026-05-07 07:22 42.69505 23.40951 1755 ft 18 kts 275°
2026-05-07 07:22 42.69516 23.40767 1754 ft 21 kts 275°
2026-05-07 07:22 42.69528 23.40582 1750 ft 11 kts 275°
2026-05-07 07:23 42.69526 23.40508 1754 ft 8 kts 242°
2026-05-07 07:23 42.69462 23.40465 1747 ft 12 kts 195°
2026-05-07 07:23 42.69400 23.40441 1750 ft 15 kts 197°
2026-05-07 07:23 42.69284 23.40392 1750 ft 20 kts 198°
2026-05-07 07:24 42.69185 23.40348 1754 ft 10 kts 198°
2026-05-07 07:24 42.69145 23.40376 1750 ft 5 kts 136°
2026-05-07 07:24 42.69094 23.40376 1754 ft 5 kts 192°
2026-05-07 07:24 42.69071 23.40368 1754 ft 0 kts 195°